Time;durP1;ratioP1;P1;durP2;ratioP2;P2;SDS_P1;SDS_P2;PMS_P1;PMS_P2;Temp;Humidity;BMP_temperature;BMP_pressure;BME280_temperature;BME280_humidity;BME280_pressure;Samples;Min_cycle;Max_cycle;Signal;HPM_P1;HPM_P2
2021/11/28 00:01:57;;;;;;;1.63;1.30;;;;;;;3.87;0.00;60892.56;4818244;28;20125;-87
2021/11/28 00:04:36;;;;;;;1.60;1.00;;;;;;;-145.06;0.00;60892.56;4812982;28;20568;-87
2021/11/28 00:10:17;;;;;;;2.03;1.48;;;;;;;-145.06;0.00;60892.56;4810924;28;20026;-88
2021/11/28 00:13:07;;;;;;;1.52;1.10;;;;;;;-145.06;0.00;60892.56;4816810;28;20483;-87
2021/11/28 00:15:46;;;;;;;1.10;0.90;;;;;;;-145.06;0.00;60892.56;4813560;28;20030;-86
2021/11/28 00:18:26;;;;;;;2.25;1.50;;;;;;;-145.06;0.00;60892.56;4812021;28;20030;-87
2021/11/28 00:21:05;;;;;;;2.25;1.40;;;;;;;3.87;0.00;60892.56;4817199;28;20055;-87
2021/11/28 00:23:44;;;;;;;2.50;1.50;;;;;;;-145.06;0.00;60892.56;4814570;28;20484;-87
2021/11/28 00:26:23;;;;;;;1.87;1.43;;;;;;;-145.06;0.00;60892.56;4816168;28;20313;-86
2021/11/28 00:29:07;;;;;;;2.75;1.40;;;;;;;-145.06;0.00;60892.56;4806775;28;20301;-88
2021/11/28 00:31:47;;;;;;;2.03;1.30;;;;;;;-145.06;0.00;60892.56;4813797;28;20425;-87
2021/11/28 00:34:26;;;;;;;1.67;1.20;;;;;;;-145.06;0.00;60892.56;4816233;28;20038;-87
2021/11/28 00:37:05;;;;;;;1.73;1.30;;;;;;;-145.06;0.00;60892.56;4820087;28;20035;-87
2021/11/28 00:39:47;;;;;;;2.13;1.70;;;;;;;-145.06;0.00;60892.56;4816155;28;20361;-88
2021/11/28 00:42:26;;;;;;;2.28;1.55;;;;;;;-145.06;0.00;60892.56;4810860;28;20038;-88
2021/11/28 00:45:06;;;;;;;2.03;1.67;;;;;;;-145.06;0.00;60892.56;4808105;28;20761;-87
2021/11/28 00:47:45;;;;;;;;;;;;;;;21.08;0.00;60892.56;4818446;28;20034;-87
2021/11/28 00:50:28;;;;;;;2.75;1.90;;;;;;;-145.06;0.00;60892.56;4804304;28;19922;-87
2021/11/28 00:53:07;;;;;;;2.25;1.38;;;;;;;10.68;0.00;60892.56;4813914;28;20039;-87
2021/11/28 00:55:46;;;;;;;1.83;1.53;;;;;;;-145.06;0.00;60892.56;4814572;28;20030;-88
2021/11/28 00:58:26;;;;;;;2.15;1.58;;;;;;;-145.06;0.00;60892.56;4809428;28;20297;-87
2021/11/28 01:01:05;;;;;;;1.85;1.40;;;;;;;-145.06;0.00;60892.56;4811013;28;20034;-87
2021/11/28 01:03:45;;;;;;;1.90;1.27;;;;;;;-145.06;0.00;60892.56;4814358;28;20034;-87
2021/11/28 01:06:24;;;;;;;1.60;1.25;;;;;;;187.52;0.00;60892.56;4814791;28;20077;-87
2021/11/28 01:09:06;;;;;;;1.77;1.30;;;;;;;3.90;0.00;60892.56;4806595;28;20074;-88
2021/11/28 01:11:45;;;;;;;1.50;1.10;;;;;;;21.08;0.00;60892.56;4816196;28;20314;-88
2021/11/28 01:14:24;;;;;;;1.77;1.15;;;;;;;-145.06;0.00;60892.56;4816248;28;20037;-88
2021/11/28 01:17:05;;;;;;;1.57;1.00;;;;;;;3.94;0.00;60892.56;4811613;28;20428;-88
2021/11/28 01:19:45;;;;;;;1.10;1.00;;;;;;;3.95;0.00;60892.56;4806219;28;20353;-87
2021/11/28 01:22:24;;;;;;;1.42;1.00;;;;;;;3.97;0.00;60892.56;4813854;28;20038;-87
2021/11/28 01:25:04;;;;;;;1.50;1.20;;;;;;;-145.06;0.00;60892.56;4811737;28;20039;-87
2021/11/28 01:27:44;;;;;;;1.40;1.05;;;;;;;187.52;0.00;60892.56;4818741;28;20025;-86
2021/11/28 01:30:22;;;;;;;;;;;;;;;21.08;0.00;60892.56;4814748;28;20031;-87
2021/11/28 01:33:02;;;;;;;1.05;0.88;;;;;;;-145.06;0.00;60892.56;4819804;28;19918;-87
2021/11/28 01:35:41;;;;;;;1.77;1.13;;;;;;;4.00;0.00;60892.56;4817545;28;20046;-87
2021/11/28 01:38:20;;;;;;;1.75;1.02;;;;;;;187.52;0.00;60892.56;4811186;28;20039;-88
2021/11/28 01:40:59;;;;;;;2.13;1.08;;;;;;;4.02;0.00;60892.56;4814688;28;20039;-86
2021/11/28 01:43:38;;;;;;;1.40;1.30;;;;;;;4.02;0.00;60892.56;4805543;28;20366;-87
2021/11/28 01:46:20;;;;;;;1.37;1.00;;;;;;;4.04;0.00;60892.56;4812689;28;20038;-86
2021/11/28 01:49:00;;;;;;;1.70;1.17;;;;;;;-145.06;0.00;60892.56;4816532;28;20281;-87
2021/11/28 01:51:39;;;;;;;;;;;;;;;187.52;0.00;60892.56;4809386;28;20027;-87
2021/11/28 01:54:18;;;;;;;1.60;1.20;;;;;;;10.68;0.00;60892.56;4811824;28;20012;-88
2021/11/28 01:56:57;;;;;;;1.63;1.10;;;;;;;21.08;0.00;60892.56;4810211;28;20034;-87
2021/11/28 01:59:36;;;;;;;1.88;1.27;;;;;;;4.08;0.00;60892.56;4813009;28;20269;-87
2021/11/28 02:02:15;;;;;;;1.85;1.20;;;;;;;4.09;0.00;60892.56;4812963;28;20121;-87
2021/11/28 02:04:56;;;;;;;1.80;1.17;;;;;;;-145.06;0.00;60892.56;4811419;28;20484;-88
2021/11/28 02:07:35;;;;;;;1.58;1.25;;;;;;;4.12;0.00;60892.56;4815734;28;20034;-86
2021/11/28 02:10:15;;;;;;;1.13;1.00;;;;;;;4.19;0.00;60892.56;4812842;28;20057;-88
2021/11/28 02:12:54;;;;;;;1.65;1.48;;;;;;;4.18;0.00;60892.56;4829542;28;20062;-87
2021/11/28 02:15:33;;;;;;;1.33;1.03;;;;;;;4.18;0.00;60892.56;4811173;28;20035;-87
2021/11/28 02:18:12;;;;;;;1.92;1.40;;;;;;;-145.06;0.00;60892.56;4802342;28;20039;-87
2021/11/28 02:20:53;;;;;;;1.00;0.90;;;;;;;-145.06;0.00;60892.56;4807061;28;20035;-88
2021/11/28 02:23:33;;;;;;;1.58;1.10;;;;;;;-145.06;0.00;60892.56;4811643;28;20348;-87
2021/11/28 02:26:15;;;;;;;1.60;1.30;;;;;;;-145.06;0.00;60892.56;4813048;28;20030;-87
2021/11/28 02:28:54;;;;;;;1.98;1.30;;;;;;;-145.06;0.00;60892.56;4810507;28;20050;-87
2021/11/28 02:31:33;;;;;;;1.50;1.30;;;;;;;-145.06;0.00;60892.56;4806498;28;20031;-87
2021/11/28 02:34:12;;;;;;;2.13;1.38;;;;;;;-145.06;0.00;60892.56;4810045;28;20368;-87
2021/11/28 02:36:52;;;;;;;1.97;1.27;;;;;;;-145.06;0.00;60892.56;4813402;28;20042;-88
2021/11/28 02:39:34;;;;;;;1.55;1.30;;;;;;;-145.06;0.00;60892.56;4813421;28;20500;-87
2021/11/28 02:42:18;;;;;;;2.03;1.30;;;;;;;-145.06;0.00;60892.56;4814814;28;20035;-86
2021/11/28 02:45:00;;;;;;;2.38;1.35;;;;;;;-145.06;0.00;60892.56;4820911;28;20039;-88
2021/11/28 02:47:39;;;;;;;2.85;1.63;;;;;;;-145.06;0.00;60892.56;4803982;28;20034;-87
2021/11/28 02:50:21;;;;;;;2.00;1.70;;;;;;;-145.06;0.00;60892.56;4810623;28;20906;-88
2021/11/28 02:53:02;;;;;;;1.67;1.45;;;;;;;5.49;0.00;60892.56;4821679;28;20380;-87
2021/11/28 02:55:53;;;;;;;2.10;1.58;;;;;;;-145.06;0.00;60892.56;4806578;28;20381;-87
2021/11/28 02:58:34;;;;;;;1.70;1.40;;;;;;;-145.06;0.00;60892.56;4809764;28;20018;-87
2021/11/28 03:01:18;;;;;;;3.33;1.63;;;;;;;-145.06;0.00;60892.56;4801738;28;20369;-87
2021/11/28 03:03:57;;;;;;;2.05;1.42;;;;;;;-145.06;0.00;60892.56;4819581;28;20465;-88
2021/11/28 03:06:36;;;;;;;2.93;1.73;;;;;;;-145.06;0.00;60892.56;4811576;28;20037;-87
2021/11/28 03:09:15;;;;;;;2.73;1.60;;;;;;;-145.06;0.00;60892.56;4807306;28;20056;-88
2021/11/28 03:11:55;;;;;;;1.65;1.25;;;;;;;-145.06;0.00;60892.56;4800896;28;20038;-87
2021/11/28 03:14:34;;;;;;;2.38;1.58;;;;;;;-145.06;0.00;60892.56;4813950;28;20039;-87
2021/11/28 03:17:13;;;;;;;2.35;1.33;;;;;;;-145.06;0.00;60892.56;4813371;28;20038;-87
2021/11/28 03:19:52;;;;;;;2.70;1.50;;;;;;;-145.06;0.00;60892.56;4822234;28;20038;-88
2021/11/28 03:22:30;;;;;;;2.95;1.20;;;;;;;-145.06;0.00;60892.56;4820238;28;20090;-89
2021/11/28 03:25:10;;;;;;;2.58;1.55;;;;;;;-145.06;0.00;60892.56;4805255;28;20026;-87
2021/11/28 03:27:50;;;;;;;2.33;1.52;;;;;;;-145.06;0.00;60892.56;4810535;28;20034;-87
2021/11/28 03:30:29;;;;;;;1.88;1.42;;;;;;;-145.06;0.00;60892.56;4805994;28;20383;-87
2021/11/28 03:33:08;;;;;;;1.70;1.25;;;;;;;-145.06;0.00;60892.56;4808543;28;20105;-87
2021/11/28 03:35:49;;;;;;;1.70;1.20;;;;;;;-145.06;0.00;60892.56;4817417;28;20113;-87
2021/11/28 03:38:28;;;;;;;2.20;1.50;;;;;;;-145.06;0.00;60892.56;4814563;28;20042;-87
2021/11/28 03:41:08;;;;;;;1.23;1.03;;;;;;;-145.06;0.00;60892.56;4817390;28;20109;-87
2021/11/28 03:43:51;;;;;;;1.67;1.30;;;;;;;-145.06;0.00;60892.56;4812836;28;20026;-88
2021/11/28 03:46:29;;;;;;;1.50;1.23;;;;;;;-145.06;0.00;60892.56;4811711;28;20030;-88
2021/11/28 03:49:08;;;;;;;1.40;1.05;;;;;;;-145.06;0.00;60892.56;4814654;28;20039;-87
2021/11/28 03:51:48;;;;;;;1.98;1.52;;;;;;;-145.06;0.00;60892.56;4816607;28;20480;-88
2021/11/28 03:54:26;;;;;;;1.47;1.33;;;;;;;-145.06;0.00;60892.56;4812831;28;20039;-87
2021/11/28 03:57:06;;;;;;;1.40;1.20;;;;;;;-145.06;0.00;60892.56;4817103;28;20289;-87
2021/11/28 03:59:45;;;;;;;2.28;1.10;;;;;;;-145.06;0.00;60892.56;4814640;28;20039;-87
2021/11/28 04:02:25;;;;;;;2.80;1.30;;;;;;;-145.06;0.00;60892.56;4813913;28;20113;-88
2021/11/28 04:05:05;;;;;;;1.88;1.38;;;;;;;-145.06;0.00;60892.56;4815052;28;20063;-88
2021/11/28 04:07:44;;;;;;;;;;;;;;;-145.06;0.00;60892.56;4811627;28;20042;-87
2021/11/28 04:10:23;;;;;;;1.47;0.87;;;;;;;-145.06;0.00;60892.56;4822339;28;19921;-87
2021/11/28 04:13:03;;;;;;;1.80;1.20;;;;;;;-145.06;0.00;60892.56;4816648;28;20274;-87
2021/11/28 04:15:42;;;;;;;;;;;;;;;-145.06;0.00;60892.56;4812862;28;20039;-87
2021/11/28 04:18:21;;;;;;;1.37;1.10;;;;;;;-145.06;0.00;60892.56;4815014;28;20296;-86
2021/11/28 04:21:00;;;;;;;1.02;0.80;;;;;;;-145.06;0.00;60892.56;4806633;28;20286;-87
2021/11/28 04:23:39;;;;;;;0.80;0.70;;;;;;;-145.06;0.00;60892.56;4814438;28;20027;-88
2021/11/28 04:26:18;;;;;;;1.05;0.95;;;;;;;-145.06;0.00;60892.56;4815818;28;20046;-86
2021/11/28 04:28:57;;;;;;;1.73;1.00;;;;;;;-145.06;0.00;60892.56;4815798;28;20038;-87
2021/11/28 04:31:36;;;;;;;2.22;1.20;;;;;;;-145.06;0.00;60892.56;4820106;28;20026;-88
2021/11/28 04:34:15;;;;;;;1.47;1.00;;;;;;;-145.06;0.00;60892.56;4817206;28;20492;-87
2021/11/28 04:36:54;;;;;;;1.38;1.00;;;;;;;-145.06;0.00;60892.56;4817420;28;20034;-87
2021/11/28 04:39:33;;;;;;;1.13;1.02;;;;;;;4.35;0.00;60892.56;4818194;28;20030;-88
2021/11/28 04:42:12;;;;;;;1.35;1.08;;;;;;;-145.06;0.00;60892.56;4816330;28;20385;-88
2021/11/28 04:44:51;;;;;;;1.37;1.27;;;;;;;-145.06;0.00;60892.56;4813710;28;20074;-87
2021/11/28 04:47:31;;;;;;;1.45;1.00;;;;;;;10.68;0.00;60892.56;4816055;28;20701;-88
2021/11/28 04:50:12;;;;;;;1.40;0.90;;;;;;;-145.06;0.00;60892.56;4811239;28;20039;-87
2021/11/28 04:52:51;;;;;;;2.28;1.15;;;;;;;-145.06;0.00;60892.56;4813875;28;20023;-86
2021/11/28 04:55:31;;;;;;;1.33;1.10;;;;;;;-145.06;0.00;60892.56;4811571;28;20038;-87
2021/11/28 04:58:10;;;;;;;1.75;1.30;;;;;;;-145.06;0.00;60892.56;4809797;28;20057;-87
2021/11/28 05:00:49;;;;;;;2.50;1.53;;;;;;;-145.06;0.00;60892.56;4812195;28;20381;-87
2021/11/28 05:03:28;;;;;;;2.67;1.50;;;;;;;-145.06;0.00;60892.56;4812480;28;20309;-87
2021/11/28 05:06:06;;;;;;;1.75;1.17;;;;;;;-145.06;0.00;60892.56;4811283;28;20038;-87
2021/11/28 05:08:45;;;;;;;1.67;1.10;;;;;;;-145.06;0.00;60892.56;4813607;28;20480;-88
2021/11/28 05:11:24;;;;;;;1.17;1.00;;;;;;;-145.06;0.00;60892.56;4808004;28;20034;-87
2021/11/28 05:14:03;;;;;;;1.63;1.00;;;;;;;-145.06;0.00;60892.56;4811232;28;20030;-87
2021/11/28 05:16:43;;;;;;;1.10;1.00;;;;;;;-145.06;0.00;60892.56;4806707;28;20046;-87
2021/11/28 05:19:23;;;;;;;1.83;1.13;;;;;;;-145.06;0.00;60892.56;4808717;28;20037;-86
2021/11/28 05:22:03;;;;;;;;;;;;;;;-145.06;0.00;60892.56;4812583;28;20042;-87
2021/11/28 05:24:43;;;;;;;1.60;1.23;;;;;;;-145.06;0.00;60892.56;4824620;28;20000;-86
2021/11/28 05:27:23;;;;;;;1.30;1.08;;;;;;;-145.06;0.00;60892.56;4820879;28;20026;-88
2021/11/28 05:30:04;;;;;;;1.30;1.17;;;;;;;-145.06;0.00;60892.56;4820354;28;20037;-86
2021/11/28 05:32:43;;;;;;;1.08;0.98;;;;;;;-145.06;0.00;60892.56;4805850;28;20113;-87
2021/11/28 05:35:22;;;;;;;2.03;1.40;;;;;;;-145.06;0.00;60892.56;4817325;28;20034;-87
2021/11/28 05:38:01;;;;;;;1.30;1.20;;;;;;;-145.06;0.00;60892.56;4808896;28;20516;-87
2021/11/28 05:40:40;;;;;;;1.50;1.00;;;;;;;-145.06;0.00;60892.56;4803055;28;20026;-87
2021/11/28 05:43:19;;;;;;;1.48;0.90;;;;;;;-145.06;0.00;60892.56;4805830;28;20113;-87
2021/11/28 05:46:01;;;;;;;1.13;1.00;;;;;;;4.47;0.00;60892.56;4805351;28;20038;-87
2021/11/28 05:48:40;;;;;;;1.90;0.98;;;;;;;-145.06;0.00;60892.56;4807649;28;20395;-88
2021/11/28 05:51:19;;;;;;;1.40;1.20;;;;;;;-145.06;0.00;60892.56;4811342;28;20034;-87
2021/11/28 05:53:58;;;;;;;1.10;0.90;;;;;;;187.52;0.00;60892.56;4808903;28;20031;-86
2021/11/28 05:56:37;;;;;;;1.67;1.00;;;;;;;-145.06;0.00;60892.56;4807553;28;20472;-86
2021/11/28 05:59:15;;;;;;;2.83;1.10;;;;;;;-145.06;0.00;60892.56;4810613;28;20034;-88
2021/11/28 06:01:55;;;;;;;1.65;1.15;;;;;;;10.68;0.00;60892.56;4829691;28;20042;-87
2021/11/28 06:04:35;;;;;;;1.95;1.30;;;;;;;5.49;0.00;60892.56;4807334;28;20038;-86
2021/11/28 06:07:14;;;;;;;1.45;1.10;;;;;;;-145.06;0.00;60892.56;4815892;28;20183;-87
2021/11/28 06:09:53;;;;;;;1.93;1.00;;;;;;;5.49;0.00;60892.56;4804687;28;20030;-87
2021/11/28 06:12:32;;;;;;;1.33;1.23;;;;;;;4.47;0.00;60892.56;4812493;28;20038;-86
2021/11/28 06:15:11;;;;;;;0.90;0.87;;;;;;;-145.06;0.00;60892.56;4806922;28;20399;-87
2021/11/28 06:17:50;;;;;;;1.63;1.30;;;;;;;-145.06;0.00;60892.56;4812323;28;20034;-88
2021/11/28 06:20:29;;;;;;;2.45;1.15;;;;;;;4.84;0.00;60892.56;4809539;28;20038;-86
2021/11/28 06:23:08;;;;;;;1.30;1.03;;;;;;;-145.06;0.00;60892.56;4806013;28;20065;-87
2021/11/28 06:25:47;;;;;;;1.33;1.00;;;;;;;-145.06;0.00;60892.56;4810877;28;20043;-87
2021/11/28 06:28:26;;;;;;;1.13;1.03;;;;;;;-145.06;0.00;60892.56;4812895;28;20034;-86
2021/11/28 06:31:04;;;;;;;2.30;1.08;;;;;;;-145.06;0.00;60892.56;4806651;28;20030;-87
2021/11/28 06:33:43;;;;;;;1.30;1.10;;;;;;;-145.06;0.00;60892.56;4804768;28;20370;-87
2021/11/28 06:36:23;;;;;;;1.85;1.00;;;;;;;-145.06;0.00;60892.56;4810441;28;20282;-86
2021/11/28 06:39:02;;;;;;;1.33;1.13;;;;;;;-145.06;0.00;60892.56;4814679;28;20117;-86
2021/11/28 06:41:41;;;;;;;1.27;0.98;;;;;;;-145.06;0.00;60892.56;4821574;28;20026;-85
2021/11/28 06:44:20;;;;;;;2.00;1.20;;;;;;;-145.06;0.00;60892.56;4821927;28;20050;-86
2021/11/28 06:46:59;;;;;;;1.23;1.02;;;;;;;-145.06;0.00;60892.56;4806206;28;20039;-87
2021/11/28 06:49:39;;;;;;;1.50;1.13;;;;;;;-145.06;0.00;60892.56;4808544;28;20038;-87
2021/11/28 06:52:18;;;;;;;2.22;1.10;;;;;;;-145.06;0.00;60892.56;4805393;28;20030;-86
2021/11/28 06:54:57;;;;;;;1.43;1.00;;;;;;;-145.06;0.00;60892.56;4805751;28;20038;-87
2021/11/28 06:57:36;;;;;;;1.95;1.20;;;;;;;-145.06;0.00;60892.56;4806058;28;20034;-86
2021/11/28 07:00:17;;;;;;;1.52;1.17;;;;;;;-145.06;0.00;60892.56;4812922;28;20022;-87
2021/11/28 07:02:56;;;;;;;2.95;1.38;;;;;;;-145.06;0.00;60892.56;4810742;28;20031;-87
2021/11/28 07:05:35;;;;;;;2.95;1.30;;;;;;;-145.06;0.00;60892.56;4806860;28;20034;-87
2021/11/28 07:08:14;;;;;;;1.73;1.33;;;;;;;-145.06;0.00;60892.56;4811042;28;20030;-88
2021/11/28 07:10:53;;;;;;;1.27;1.17;;;;;;;-145.06;0.00;60892.56;4808603;28;20026;-88
2021/11/28 07:13:32;;;;;;;;;;;;;;;-145.06;0.00;60892.56;4813178;28;20360;-87
2021/11/28 07:16:12;;;;;;;0.90;0.85;;;;;;;-145.06;0.00;60892.56;4807942;28;19918;-86
2021/11/28 07:18:50;;;;;;;1.53;1.17;;;;;;;-145.06;0.00;60892.56;4813834;28;20039;-88
2021/11/28 07:21:30;;;;;;;1.20;1.10;;;;;;;-145.06;0.00;60892.56;4812127;28;20282;-87
2021/11/28 07:24:09;;;;;;;1.10;0.90;;;;;;;-145.06;0.00;60892.56;4813637;28;20038;-87
2021/11/28 07:26:48;;;;;;;0.98;0.93;;;;;;;-145.06;0.00;60892.56;4815976;28;20065;-88
2021/11/28 07:29:27;;;;;;;1.35;1.20;;;;;;;-145.06;0.00;60892.56;4816376;28;20074;-88
2021/11/28 07:32:06;;;;;;;1.10;1.03;;;;;;;-145.06;0.00;60892.56;4816488;28;20030;-87
2021/11/28 07:34:45;;;;;;;1.50;1.40;;;;;;;5.49;0.00;60892.56;4807514;28;20987;-87
2021/11/28 07:37:24;;;;;;;0.90;0.90;;;;;;;-145.06;0.00;60892.56;4832827;28;20113;-88
2021/11/28 07:40:04;;;;;;;1.30;1.20;;;;;;;-145.06;0.00;60892.56;4806912;28;20476;-89
2021/11/28 07:42:43;;;;;;;1.30;1.05;;;;;;;-145.06;0.00;60892.56;4813870;28;21110;-87
2021/11/28 07:45:21;;;;;;;1.40;1.20;;;;;;;5.49;0.00;60892.56;4812898;28;20034;-87
2021/11/28 07:48:00;;;;;;;1.20;1.10;;;;;;;-145.06;0.00;60892.56;4812465;28;20767;-88
2021/11/28 07:50:39;;;;;;;1.30;1.13;;;;;;;-145.06;0.00;60892.56;4811455;28;20094;-87
2021/11/28 07:53:19;;;;;;;1.30;1.05;;;;;;;-145.06;0.00;60892.56;4810115;28;20289;-87
2021/11/28 07:55:58;;;;;;;1.35;1.20;;;;;;;-145.06;0.00;60892.56;4808347;28;20034;-88
2021/11/28 07:58:37;;;;;;;1.45;1.30;;;;;;;-145.06;0.00;60892.56;4810204;28;20034;-88
2021/11/28 08:01:16;;;;;;;1.80;1.45;;;;;;;-145.06;0.00;60892.56;4807894;28;20082;-88
2021/11/28 08:03:57;;;;;;;1.50;1.40;;;;;;;-145.06;0.00;60892.56;4821627;28;20037;-89
2021/11/28 08:06:35;;;;;;;2.08;1.30;;;;;;;-145.06;0.00;60892.56;4808868;28;20608;-88
2021/11/28 08:09:14;;;;;;;1.65;1.25;;;;;;;-145.06;0.00;60892.56;4806714;28;20039;-88
2021/11/28 08:11:53;;;;;;;2.25;1.77;;;;;;;-145.06;0.00;60892.56;4819682;28;20361;-87
2021/11/28 08:14:35;;;;;;;2.97;1.88;;;;;;;-145.06;0.00;60892.56;4810371;28;20034;-88
2021/11/28 08:17:14;;;;;;;1.70;1.38;;;;;;;-145.06;0.00;60892.56;4810535;28;20374;-88
2021/11/28 08:19:53;;;;;;;2.35;1.67;;;;;;;5.49;0.00;60892.56;4811524;28;20358;-88
2021/11/28 08:22:32;;;;;;;2.00;1.63;;;;;;;-145.06;0.00;60892.56;4814719;28;20038;-88
2021/11/28 08:25:13;;;;;;;1.93;1.50;;;;;;;10.68;0.00;60892.56;4821709;28;20039;-88
2021/11/28 08:27:52;;;;;;;1.95;1.40;;;;;;;-145.06;0.00;60892.56;4816672;28;20026;-89
2021/11/28 08:30:31;;;;;;;2.40;1.85;;;;;;;-145.06;0.00;60892.56;4814195;28;20030;-89
2021/11/28 08:33:10;;;;;;;1.63;1.35;;;;;;;5.49;0.00;60892.56;4817319;28;20050;-88
2021/11/28 08:35:49;;;;;;;1.60;1.38;;;;;;;4.84;0.00;60892.56;4812042;28;20023;-88
2021/11/28 08:38:29;;;;;;;3.38;1.75;;;;;;;-145.06;0.00;60892.56;4813027;28;20030;-89
2021/11/28 08:41:13;;;;;;;1.80;1.67;;;;;;;-145.06;0.00;60892.56;4818350;28;20034;-89
2021/11/28 08:43:52;;;;;;;1.90;1.52;;;;;;;-145.06;0.00;60892.56;4822327;28;20034;-88
2021/11/28 08:46:32;;;;;;;1.73;1.52;;;;;;;-145.06;0.00;60892.56;4816074;28;20033;-88
2021/11/28 08:49:11;;;;;;;1.80;1.52;;;;;;;5.49;0.00;60892.56;4803896;28;20480;-88
2021/11/28 08:51:50;;;;;;;1.93;1.53;;;;;;;-145.06;0.00;60892.56;4824751;28;20022;-88
2021/11/28 08:54:30;;;;;;;3.28;1.83;;;;;;;-145.06;0.00;60892.56;4826811;28;20030;-88
2021/11/28 08:57:09;;;;;;;2.35;1.45;;;;;;;-145.06;0.00;60892.56;4815085;28;20034;-88
2021/11/28 08:59:49;;;;;;;2.33;1.73;;;;;;;-145.06;0.00;60892.56;4805671;28;20043;-89
2021/11/28 09:02:28;;;;;;;1.92;1.27;;;;;;;-145.06;0.00;60892.56;4807591;28;20038;-88
2021/11/28 09:05:08;;;;;;;3.13;1.60;;;;;;;-145.06;0.00;60892.56;4821212;28;20030;-89
2021/11/28 09:07:48;;;;;;;;;;;;;;;-145.06;0.00;60892.56;4818718;28;20293;-88
2021/11/28 09:10:27;;;;;;;1.77;1.60;;;;;;;-145.06;0.00;60892.56;4810157;28;19914;-89
2021/11/28 09:13:06;;;;;;;2.97;1.52;;;;;;;-145.06;0.00;60892.56;4812414;28;20503;-88
2021/11/28 09:15:45;;;;;;;1.40;1.30;;;;;;;-145.06;0.00;60892.56;4814363;28;20042;-88
2021/11/28 09:18:32;;;;;;;2.45;1.88;;;;;;;-145.06;0.00;60892.56;4807156;28;20522;-87
2021/11/28 09:21:15;;;;;;;3.63;1.63;;;;;;;-145.06;0.00;60892.56;4816321;28;20034;-88
2021/11/28 09:26:52;;;;;;;2.80;1.90;;;;;;;-145.06;0.00;60892.56;4807139;28;20035;-86
2021/11/28 09:29:34;;;;;;;2.53;1.77;;;;;;;-145.06;0.00;60892.56;4814118;28;20112;-88
2021/11/28 09:32:15;;;;;;;2.70;1.83;;;;;;;-145.06;0.00;60892.56;4805624;28;20105;-88
2021/11/28 09:34:54;;;;;;;1.95;1.73;;;;;;;-145.06;0.00;60892.56;4812017;28;20038;-88
2021/11/28 09:37:33;;;;;;;2.70;2.37;;;;;;;-145.06;0.00;60892.56;4808663;28;20038;-87
2021/11/28 09:40:12;;;;;;;2.95;1.80;;;;;;;-145.06;0.00;60892.56;4817955;28;20117;-88
2021/11/28 09:42:53;;;;;;;3.08;2.20;;;;;;;-145.06;0.00;60892.56;4809265;28;20042;-87
2021/11/28 09:45:32;;;;;;;2.72;2.00;;;;;;;-145.06;0.00;60892.56;4818532;28;20034;-89
2021/11/28 09:48:11;;;;;;;2.97;2.10;;;;;;;-145.06;0.00;60892.56;4817196;28;20034;-87
2021/11/28 09:50:51;;;;;;;2.30;2.00;;;;;;;-145.06;0.00;60892.56;4811014;28;20265;-87
2021/11/28 09:53:35;;;;;;;2.85;2.08;;;;;;;-145.06;0.00;60892.56;4807149;28;20065;-87
2021/11/28 09:56:14;;;;;;;2.80;2.17;;;;;;;-145.06;0.00;60892.56;4812686;28;20038;-88
2021/11/28 09:58:54;;;;;;;4.63;2.65;;;;;;;-145.06;0.00;60892.56;4820227;28;20034;-87
2021/11/28 10:01:36;;;;;;;2.80;2.28;;;;;;;-145.06;0.00;60892.56;4819081;28;20095;-87
2021/11/28 10:04:15;;;;;;;2.80;2.35;;;;;;;-145.06;0.00;60892.56;4813454;28;20034;-87
2021/11/28 10:06:55;;;;;;;2.53;2.20;;;;;;;-145.06;0.00;60892.56;4812561;28;20386;-87
2021/11/28 10:09:34;;;;;;;3.95;2.70;;;;;;;-145.06;0.00;60892.56;4813348;28;20039;-88
2021/11/28 10:12:26;;;;;;;3.23;2.53;;;;;;;-145.06;0.00;60892.56;4813151;28;20062;-88
2021/11/28 10:15:09;;;;;;;3.42;2.40;;;;;;;-145.06;0.00;60892.56;4821014;28;20042;-87
2021/11/28 10:17:48;;;;;;;3.13;2.20;;;;;;;5.16;0.00;60892.56;4808147;28;20039;-86
2021/11/28 10:20:28;;;;;;;3.08;2.45;;;;;;;-145.06;0.00;60892.56;4802909;28;20035;-88
2021/11/28 10:23:07;;;;;;;3.50;2.47;;;;;;;-145.06;0.00;60892.56;4802269;28;20043;-88
2021/11/28 10:25:46;;;;;;;3.35;2.40;;;;;;;-145.06;0.00;60892.56;4801067;28;20027;-88
2021/11/28 10:28:25;;;;;;;4.03;2.10;;;;;;;10.68;0.00;60892.56;4805813;28;20074;-87
2021/11/28 10:31:08;;;;;;;3.37;2.50;;;;;;;5.08;0.00;60892.56;4803694;28;20070;-88
2021/11/28 10:33:48;;;;;;;2.67;2.10;;;;;;;-145.06;0.00;60892.56;4812010;28;20265;-86
2021/11/28 10:36:28;;;;;;;2.80;2.50;;;;;;;-145.06;0.00;60892.56;4803807;28;20034;-87
2021/11/28 10:39:20;;;;;;;3.58;2.50;;;;;;;5.16;0.00;60892.56;4807676;28;20484;-87
2021/11/28 10:41:59;;;;;;;3.15;2.42;;;;;;;-145.06;0.00;60892.56;4801708;28;20759;-87
2021/11/28 10:44:38;;;;;;;3.60;2.13;;;;;;;-145.06;0.00;60892.56;4806311;28;20408;-87
2021/11/28 10:47:20;;;;;;;4.13;2.87;;;;;;;5.12;0.00;60892.56;4807727;28;20042;-88
2021/11/28 10:50:25;;;;;;;3.58;2.85;;;;;;;-145.06;0.00;60892.56;4803913;28;20385;-87
2021/11/28 10:53:11;;;;;;;4.10;3.13;;;;;;;-145.06;0.00;60892.56;4806807;28;20038;-87
2021/11/28 10:55:53;;;;;;;3.88;3.13;;;;;;;5.16;0.00;60892.56;4808499;28;20097;-87
2021/11/28 10:58:32;;;;;;;5.80;3.95;;;;;;;-145.06;0.00;60892.56;4806527;28;20042;-87
2021/11/28 11:01:11;;;;;;;6.05;4.03;;;;;;;-145.06;0.00;60892.56;4812660;28;20031;-87
2021/11/28 11:03:51;;;;;;;7.13;4.60;;;;;;;-145.06;0.00;60892.56;4808044;28;20603;-88
2021/11/28 11:06:30;;;;;;;;;;;;;;;5.20;0.00;60892.56;4809229;28;20034;-87
2021/11/28 11:09:24;;;;;;;7.60;4.30;;;;;;;5.16;0.00;60892.56;4809582;28;19917;-87
2021/11/28 11:12:16;;;;;;;6.32;4.22;;;;;;;-145.06;0.00;60892.56;4811750;28;20027;-87
2021/11/28 11:14:57;;;;;;;9.63;5.13;;;;;;;-145.06;0.00;60892.56;4809202;28;20038;-87
2021/11/28 11:17:56;;;;;;;7.78;4.88;;;;;;;-145.06;0.00;60892.56;4808035;28;20031;-88
2021/11/28 11:20:39;;;;;;;8.38;5.43;;;;;;;-145.06;0.00;60892.56;4805149;28;20133;-87
2021/11/28 11:23:35;;;;;;;6.53;4.82;;;;;;;-145.06;0.00;60892.56;4810185;28;20030;-87
2021/11/28 11:26:16;;;;;;;7.45;4.40;;;;;;;-145.06;0.00;60892.56;4809592;28;20034;-88
2021/11/28 11:29:00;;;;;;;8.32;5.20;;;;;;;5.26;0.00;60892.56;4809234;28;20480;-86
2021/11/28 11:31:41;;;;;;;6.70;4.88;;;;;;;5.28;0.00;60892.56;4808883;28;20034;-87
2021/11/28 11:34:23;;;;;;;7.90;5.18;;;;;;;-145.06;0.00;60892.56;4809319;28;20034;-87
2021/11/28 11:37:12;;;;;;;7.00;5.07;;;;;;;-145.06;0.00;60892.56;4814789;28;20042;-86
2021/11/28 11:39:53;;;;;;;7.38;4.78;;;;;;;5.38;0.00;60892.56;4813066;28;20120;-88
2021/11/28 11:42:32;;;;;;;7.15;4.70;;;;;;;-145.06;0.00;60892.56;4810382;28;20045;-87
2021/11/28 11:45:14;;;;;;;7.50;5.00;;;;;;;5.38;0.00;60892.56;4804793;28;20066;-87
2021/11/28 11:47:54;;;;;;;6.53;4.72;;;;;;;-145.06;0.00;60892.56;4826554;28;20034;-86
2021/11/28 11:50:35;;;;;;;6.70;4.60;;;;;;;-145.06;0.00;60892.56;4806461;28;20057;-88
2021/11/28 11:53:17;;;;;;;7.03;5.13;;;;;;;-145.06;0.00;60892.56;4813637;28;20030;-88
2021/11/28 11:55:57;;;;;;;6.82;4.32;;;;;;;-145.06;0.00;60892.56;4806699;28;20034;-87
2021/11/28 11:58:56;;;;;;;;;;;;;;;-145.06;0.00;60892.56;4802386;28;21654;-86
2021/11/28 12:01:36;;;;;;;4.75;3.65;;;;;;;-145.06;0.00;60892.56;4811303;28;20264;-87
2021/11/28 12:04:39;;;;;;;5.72;3.80;;;;;;;10.68;0.00;60892.56;4805508;28;20046;-86
2021/11/28 12:07:48;;;;;;;5.00;3.50;;;;;;;-145.06;0.00;60892.56;4810546;28;20034;-86
2021/11/28 12:10:33;;;;;;;6.18;4.63;;;;;;;-145.06;0.00;60892.56;4813125;28;20030;-86
2021/11/28 12:13:33;;;;;;;5.18;3.80;;;;;;;-145.06;0.00;60892.56;4806679;28;20038;-86
2021/11/28 12:16:12;;;;;;;5.63;4.40;;;;;;;-145.06;0.00;60892.56;4805527;28;20334;-86
2021/11/28 12:18:54;;;;;;;4.68;3.47;;;;;;;-145.06;0.00;60892.56;4810315;28;20031;-87
2021/11/28 12:21:39;;;;;;;5.72;4.25;;;;;;;-145.06;0.00;60892.56;4819835;28;20034;-87
2021/11/28 12:24:28;;;;;;;5.18;3.70;;;;;;;-145.06;0.00;60892.56;4806644;28;20125;-88
2021/11/28 12:27:07;;;;;;;5.75;4.20;;;;;;;-145.06;0.00;60892.56;4824780;28;20376;-87
2021/11/28 12:29:46;;;;;;;5.77;4.27;;;;;;;-145.06;0.00;60892.56;4803712;28;20485;-87
2021/11/28 12:32:28;;;;;;;5.07;3.90;;;;;;;-145.06;0.00;60892.56;4809107;28;20621;-87
2021/11/28 12:35:07;;;;;;;5.10;3.88;;;;;;;-145.06;0.00;60892.56;4804865;28;20723;-87
2021/11/28 12:37:48;;;;;;;5.40;4.05;;;;;;;-145.06;0.00;60892.56;4802959;28;20034;-87
2021/11/28 12:40:31;;;;;;;6.53;4.40;;;;;;;-145.06;0.00;60892.56;4811740;28;20034;-87